Time;durP1;ratioP1;P1;durP2;ratioP2;P2;SDS_P1;SDS_P2;PMS_P1;PMS_P2;Temp;Humidity;BMP_temperature;BMP_pressure;BME280_temperature;BME280_humidity;BME280_pressure;Samples;Min_cycle;Max_cycle;Signal;HPM_P1;HPM_P2
2021/12/03 00:02:19;;;;;;;5.10;4.60;;;;;;;5.20;70.89;98145.28;5060772;28;20198;-80
2021/12/03 00:05:16;;;;;;;5.50;4.80;;;;;;;5.30;71.15;98177.44;5082793;23;20230;-80
2021/12/03 00:08:01;;;;;;;5.30;4.80;;;;;;;5.21;71.51;98176.13;5085238;23;20244;31
2021/12/03 00:11:22;;;;;;;6.53;4.87;;;;;;;5.15;71.65;98177.81;5014570;23;20240;-81
2021/12/03 00:14:08;;;;;;;5.73;5.17;;;;;;;5.12;71.70;98182.75;5061167;28;20288;-80
2021/12/03 00:17:06;;;;;;;6.90;5.70;;;;;;;5.08;71.47;98182.38;5072263;23;20234;-80
2021/12/03 00:19:49;;;;;;;5.47;4.97;;;;;;;5.09;70.63;98189.31;5053252;22;20214;31
2021/12/03 00:22:31;;;;;;;5.87;5.20;;;;;;;4.90;70.91;98165.63;5016476;23;20224;-80
2021/12/03 00:25:19;;;;;;;6.43;5.30;;;;;;;5.03;70.60;98197.34;5016332;28;20242;-80
2021/12/03 00:28:40;;;;;;;6.13;4.77;;;;;;;4.97;70.27;98209.63;5023785;23;20228;-79
2021/12/03 00:31:31;;;;;;;6.23;4.80;;;;;;;4.90;70.02;98221.34;5000602;28;20191;-81
2021/12/03 00:34:27;;;;;;;6.33;5.10;;;;;;;4.95;69.52;98227.63;5021786;23;20283;-80
2021/12/03 00:37:17;;;;;;;5.50;4.60;;;;;;;4.92;69.77;98235.19;5035343;23;20253;-80
2021/12/03 00:40:14;;;;;;;5.70;4.53;;;;;;;4.87;69.63;98233.19;5006581;23;20240;-80
2021/12/03 00:43:07;;;;;;;5.47;4.53;;;;;;;4.94;68.45;98249.09;4960511;29;20220;-80
2021/12/03 00:46:15;;;;;;;4.50;4.10;;;;;;;4.94;68.38;98252.56;5007295;23;20223;-79
2021/12/03 00:49:12;;;;;;;4.77;4.07;;;;;;;4.78;67.59;98256.53;5066622;23;20220;-79
2021/12/03 00:51:44;;;;;;;5.00;3.90;;;;;;;4.85;67.48;98256.50;5093167;23;20232;-79
2021/12/03 00:54:13;;;;;;;4.33;3.67;;;;;;;4.59;67.38;98240.75;5009085;23;20231;-80
2021/12/03 00:56:49;;;;;;;4.63;3.63;;;;;;;4.71;66.79;98260.28;4994058;28;20648;-80
2021/12/03 00:59:31;;;;;;;4.30;3.27;;;;;;;4.79;64.90;98271.44;4994526;28;20232;-81
2021/12/03 01:02:12;;;;;;;7.90;3.03;;;;;;;4.80;64.51;98282.88;5013582;23;20240;-82
2021/12/03 01:05:27;;;;;;;4.37;3.20;;;;;;;4.75;64.92;98286.16;5053974;28;20217;-81
2021/12/03 01:08:15;;;;;;;4.13;3.10;;;;;;;4.67;64.65;98304.16;5049342;23;20290;-80
2021/12/03 01:10:58;;;;;;;3.53;3.00;;;;;;;4.58;64.63;98303.59;5034820;23;20603;-81
2021/12/03 01:13:51;;;;;;;4.63;3.00;;;;;;;4.61;65.13;98307.69;5034354;23;20239;-80
2021/12/03 01:17:00;;;;;;;4.17;3.03;;;;;;;4.69;65.01;98316.19;4955782;29;20233;-81
2021/12/03 01:19:53;;;;;;;4.43;2.93;;;;;;;4.74;65.26;98323.53;4956713;29;20221;-79
2021/12/03 01:23:14;;;;;;;3.87;2.97;;;;;;;4.54;64.81;98320.97;5034727;23;20222;31
2021/12/03 01:25:57;;;;;;;4.60;3.10;;;;;;;4.50;65.20;98345.50;5045530;23;20281;-80
2021/12/03 01:31:46;;;;;;;5.07;2.80;;;;;;;4.50;65.04;98329.56;4992344;23;20226;-81
2021/12/03 01:35:20;;;;;;;4.23;2.83;;;;;;;4.60;65.32;98351.16;5009966;23;20229;-80
2021/12/03 01:38:40;;;;;;;6.70;3.00;;;;;;;4.53;65.27;98348.53;5022680;23;20234;-81
2021/12/03 01:41:11;;;;;;;4.60;3.03;;;;;;;4.55;65.25;98350.97;5019169;23;20237;-81
2021/12/03 01:44:09;;;;;;;4.83;2.90;;;;;;;4.58;65.18;98348.69;5059594;23;20233;-80
2021/12/03 01:47:14;;;;;;;5.73;3.07;;;;;;;4.49;65.43;98351.81;5092868;23;20243;-81
2021/12/03 01:50:29;;;;;;;3.87;3.10;;;;;;;4.58;65.01;98369.09;5040938;23;20231;-81
2021/12/03 01:53:48;;;;;;;5.07;3.40;;;;;;;4.56;65.34;98363.22;5272753;23;20213;-81
2021/12/03 01:56:55;;;;;;;5.63;3.63;;;;;;;4.48;66.02;98360.81;4970739;23;20765;-80
2021/12/03 01:59:32;;;;;;;4.13;3.33;;;;;;;4.53;66.16;98363.63;5008733;23;20250;-79
2021/12/03 02:02:09;;;;;;;4.60;4.03;;;;;;;4.58;65.72;98358.50;5034512;23;20219;-82
2021/12/03 02:04:50;;;;;;;3.70;3.20;;;;;;;4.60;66.16;98381.16;5078457;23;20210;-82
2021/12/03 02:08:04;;;;;;;4.00;3.23;;;;;;;4.56;66.32;98395.88;5004280;23;20275;-80
2021/12/03 02:11:12;;;;;;;3.63;3.27;;;;;;;4.57;66.46;98397.50;5006803;23;20204;31
2021/12/03 02:14:21;;;;;;;4.80;3.80;;;;;;;4.59;66.87;98392.78;4955324;23;20229;-80
2021/12/03 02:17:25;;;;;;;4.00;3.43;;;;;;;4.58;66.83;98400.94;5142273;23;20266;-83
2021/12/03 02:20:16;;;;;;;4.40;3.87;;;;;;;4.59;67.67;98399.91;5033897;23;20227;-81
2021/12/03 02:23:36;;;;;;;5.47;3.47;;;;;;;4.55;67.39;98401.38;5018384;28;20187;-80
2021/12/03 02:26:47;;;;;;;5.40;3.97;;;;;;;4.59;67.26;98400.75;5143629;23;20235;-83
2021/12/03 02:30:37;;;;;;;5.60;3.80;;;;;;;4.44;67.65;98402.84;5188105;23;20240;-82
2021/12/03 02:38:46;;;;;;;3.70;3.40;;;;;;;4.32;69.60;98431.03;4991912;23;20234;-83
2021/12/03 02:42:15;;;;;;;5.10;3.97;;;;;;;4.33;71.46;98444.09;5062339;23;20693;-83
2021/12/03 02:45:13;;;;;;;6.87;4.07;;;;;;;4.24;72.26;98453.31;5022236;23;20236;-81
2021/12/03 02:48:35;;;;;;;6.27;4.50;;;;;;;4.11;73.55;98448.00;5123538;23;20198;-82
2021/12/03 02:51:31;;;;;;;4.60;4.00;;;;;;;4.02;73.61;98454.53;5043870;23;20202;-82
2021/12/03 02:54:31;;;;;;;4.83;4.33;;;;;;;3.92;74.05;98448.84;5062340;23;20252;-81
2021/12/03 02:57:20;;;;;;;4.63;3.70;;;;;;;3.73;73.70;98452.34;5036256;23;20226;-81
2021/12/03 02:59:51;;;;;;;4.63;3.73;;;;;;;3.62;73.00;98437.88;5006440;23;20187;-82
2021/12/03 03:03:00;;;;;;;4.50;3.83;;;;;;;3.71;73.33;98467.63;5006920;28;20258;-81
2021/12/03 03:05:40;;;;;;;3.77;3.47;;;;;;;3.69;73.39;98485.53;5022207;23;20218;-81
2021/12/03 03:08:28;;;;;;;5.37;4.07;;;;;;;3.77;73.31;98488.00;5016060;23;20278;-82
2021/12/03 03:11:10;;;;;;;5.17;4.20;;;;;;;3.70;72.83;98497.75;5003929;23;20236;-81
2021/12/03 03:13:58;;;;;;;4.70;3.90;;;;;;;3.67;72.18;98487.59;5051803;23;20204;-83
2021/12/03 03:16:59;;;;;;;4.20;3.80;;;;;;;3.75;72.11;98506.75;5037597;23;20221;-82
2021/12/03 03:19:32;;;;;;;5.87;3.87;;;;;;;3.75;71.96;98509.38;5041185;28;20234;-80
2021/12/03 03:22:54;;;;;;;4.77;3.80;;;;;;;3.78;71.77;98534.69;5043212;28;20246;-81
2021/12/03 03:25:25;;;;;;;5.27;3.60;;;;;;;3.64;71.74;98511.84;5057959;28;20172;-81
2021/12/03 03:28:14;;;;;;;5.20;3.67;;;;;;;3.80;71.40;98538.75;5057233;28;20296;-82
2021/12/03 03:30:53;;;;;;;6.03;3.97;;;;;;;3.82;69.86;98541.19;5045999;28;20268;-81
2021/12/03 03:33:39;;;;;;;5.13;4.00;;;;;;;3.76;70.10;98549.94;5053931;28;20205;-82
2021/12/03 03:36:34;;;;;;;5.60;3.83;;;;;;;3.73;68.97;98551.19;5039625;28;20217;-81
2021/12/03 03:39:36;;;;;;;5.93;3.73;;;;;;;3.60;68.56;98532.59;5055748;23;20298;-81
2021/12/03 03:42:18;;;;;;;4.73;3.77;;;;;;;3.71;68.55;98550.56;5015755;28;20222;-80
2021/12/03 03:45:07;;;;;;;5.07;3.63;;;;;;;3.65;68.21;98550.53;5034029;28;20553;-82
2021/12/03 03:47:41;;;;;;;5.20;3.87;;;;;;;3.68;68.72;98555.44;5054534;23;20237;-81
2021/12/03 03:50:30;;;;;;;6.27;3.80;;;;;;;3.69;68.26;98557.88;5011282;23;20231;-80
2021/12/03 03:53:29;;;;;;;5.43;3.90;;;;;;;3.71;68.91;98562.97;5046576;28;20221;-81
2021/12/03 03:56:11;;;;;;;5.10;4.00;;;;;;;3.67;69.66;98562.56;5032807;28;20223;-81
2021/12/03 03:58:52;;;;;;;4.93;4.10;;;;;;;3.73;69.06;98567.06;5031177;28;20546;-81
2021/12/03 04:01:24;;;;;;;4.97;3.70;;;;;;;3.81;70.31;98584.59;5015905;28;20194;-81
2021/12/03 04:04:34;;;;;;;5.67;3.90;;;;;;;3.69;71.45;98578.25;5031789;23;20226;-81
2021/12/03 04:07:05;;;;;;;6.53;3.93;;;;;;;3.52;72.39;98583.09;5015100;28;20230;-81
2021/12/03 04:10:12;;;;;;;3.73;3.23;;;;;;;3.31;72.84;98589.34;5052076;23;20230;-82
2021/12/03 04:12:52;;;;;;;4.13;3.73;;;;;;;3.20;73.40;98589.13;5025380;23;20305;-82
2021/12/03 04:18:26;;;;;;;4.77;3.80;;;;;;;3.07;74.04;98598.63;5062705;23;20221;-83
2021/12/03 04:21:33;;;;;;;6.83;3.53;;;;;;;3.09;73.22;98603.72;5037913;23;20238;-83
2021/12/03 04:24:05;;;;;;;4.67;3.00;;;;;;;3.20;71.32;98597.88;5144296;23;20235;-83
2021/12/03 04:26:54;;;;;;;6.87;3.47;;;;;;;3.21;70.99;98610.09;5005094;23;20219;-82
2021/12/03 04:29:24;;;;;;;4.33;3.13;;;;;;;3.27;70.16;98609.28;5052205;23;20235;-83
2021/12/03 04:32:12;;;;;;;3.83;3.07;;;;;;;3.21;69.74;98601.34;5112952;23;20238;-83
2021/12/03 04:35:16;;;;;;;4.20;2.60;;;;;;;3.30;68.70;98630.09;5136616;23;20230;-83
2021/12/03 04:38:03;;;;;;;2.83;2.40;;;;;;;3.28;66.20;98632.09;4968651;23;20233;-82
2021/12/03 04:40:38;;;;;;;3.63;2.33;;;;;;;3.32;65.64;98637.81;5010822;23;20230;-83
2021/12/03 04:43:17;;;;;;;3.67;2.10;;;;;;;3.15;65.75;98618.00;5038144;23;20241;-83
2021/12/03 04:46:08;;;;;;;2.33;2.03;;;;;;;3.06;65.42;98620.81;5016324;28;20190;-83
2021/12/03 04:49:15;;;;;;;3.60;2.30;;;;;;;3.20;64.40;98644.69;5003682;28;20215;-83
2021/12/03 04:52:10;;;;;;;3.90;2.23;;;;;;;3.11;64.08;98649.34;5033710;28;20222;-83
2021/12/03 04:54:42;;;;;;;2.67;2.17;;;;;;;3.00;63.92;98642.75;5018044;28;20277;-84
2021/12/03 04:57:31;;;;;;;4.20;2.07;;;;;;;3.04;63.78;98664.34;5022764;28;20213;-83
2021/12/03 05:00:45;;;;;;;6.13;2.30;;;;;;;2.97;64.06;98671.44;5019129;28;20195;-84
2021/12/03 05:03:31;;;;;;;5.43;2.50;;;;;;;2.90;64.08;98673.22;5039464;23;20207;-84
2021/12/03 05:06:53;;;;;;;4.47;2.10;;;;;;;2.87;64.08;98686.84;5042812;23;20227;-83
2021/12/03 05:09:53;;;;;;;3.23;2.10;;;;;;;2.85;64.88;98691.50;5195693;23;20248;-82
2021/12/03 05:12:23;;;;;;;4.73;2.30;;;;;;;2.87;64.93;98700.91;5031288;23;20257;-84
2021/12/03 05:15:35;;;;;;;3.90;2.50;;;;;;;2.87;65.19;98702.72;5062149;23;20482;-83
2021/12/03 05:22:08;;;;;;;5.30;2.63;;;;;;;2.82;65.80;98694.53;4978925;29;20206;-82
2021/12/03 05:24:53;;;;;;;5.33;2.70;;;;;;;2.89;66.29;98720.03;5051423;23;20271;-82
2021/12/03 05:28:23;;;;;;;4.30;2.83;;;;;;;2.80;66.66;98731.75;5055383;23;20202;-81
2021/12/03 05:31:22;;;;;;;6.27;2.57;;;;;;;2.67;66.69;98721.91;5120060;23;20276;-83
2021/12/03 05:34:24;;;;;;;2.70;2.50;;;;;;;2.74;67.00;98739.66;5045984;28;20206;-83
2021/12/03 05:37:35;;;;;;;5.03;3.07;;;;;;;2.69;67.06;98747.34;4957823;29;20240;-83
2021/12/03 05:40:18;;;;;;;5.90;2.80;;;;;;;2.73;67.29;98759.19;4941374;29;20178;-83
2021/12/03 05:42:47;;;;;;;6.20;3.03;;;;;;;2.82;67.38;98764.13;4939589;29;20272;-83
2021/12/03 05:45:30;;;;;;;4.47;2.97;;;;;;;2.71;67.45;98775.22;4921502;29;20229;-83
2021/12/03 05:48:08;;;;;;;6.43;2.87;;;;;;;2.61;68.17;98769.47;4956992;29;20193;-83
2021/12/03 05:50:52;;;;;;;5.93;3.00;;;;;;;2.53;68.08;98759.00;4909888;28;20236;-83
2021/12/03 05:53:26;;;;;;;3.77;2.87;;;;;;;2.62;68.07;98779.81;5026485;23;20298;-84
2021/12/03 05:55:59;;;;;;;5.93;3.17;;;;;;;2.57;67.93;98779.56;5013165;28;20241;-82
2021/12/03 05:58:34;;;;;;;4.73;3.00;;;;;;;2.55;69.17;98786.91;5011960;28;20236;-82
2021/12/03 06:01:16;;;;;;;4.60;3.13;;;;;;;2.38;69.15;98772.25;5128742;23;20247;-82
2021/12/03 06:04:38;;;;;;;5.90;3.50;;;;;;;2.45;69.78;98794.31;5014504;28;20191;-82
2021/12/03 06:07:18;;;;;;;5.67;3.50;;;;;;;2.32;69.81;98796.00;5012221;28;20246;-84
2021/12/03 06:09:57;;;;;;;4.80;3.30;;;;;;;2.32;70.05;98794.19;5014561;28;20215;-83
2021/12/03 06:13:01;;;;;;;5.90;3.97;;;;;;;2.34;70.25;98804.56;5015957;28;20235;-82
2021/12/03 06:15:34;;;;;;;7.57;3.90;;;;;;;2.35;70.18;98809.66;5014128;28;20231;-82
2021/12/03 06:18:03;;;;;;;5.13;3.93;;;;;;;2.38;70.24;98811.91;5015095;28;20237;-83
2021/12/03 06:21:04;;;;;;;4.40;3.63;;;;;;;2.37;70.09;98822.69;4974444;28;20235;-83
2021/12/03 06:23:36;;;;;;;6.97;3.77;;;;;;;2.40;69.82;98815.22;5017593;28;20560;-84
2021/12/03 06:26:36;;;;;;;5.97;3.83;;;;;;;2.38;70.91;98825.13;5017339;28;20239;-82
2021/12/03 06:29:09;;;;;;;6.20;4.27;;;;;;;2.47;70.47;98836.44;4994321;23;20224;-83
2021/12/03 06:31:38;;;;;;;7.50;3.83;;;;;;;2.50;70.54;98836.88;4991964;28;20212;-81
2021/12/03 06:41:41;;;;;;;5.93;3.97;;;;;;;2.63;70.21;98852.06;4938480;29;20220;-83
2021/12/03 06:44:39;;;;;;;7.00;4.43;;;;;;;2.60;70.65;98853.25;4946927;29;20320;-81
2021/12/03 06:47:10;;;;;;;6.03;4.33;;;;;;;2.62;70.95;98864.47;4952962;28;20648;-83
2021/12/03 06:50:09;;;;;;;5.53;4.30;;;;;;;2.57;71.04;98864.19;4971023;23;20243;-83
2021/12/03 06:53:10;;;;;;;6.83;4.53;;;;;;;2.61;71.08;98873.41;5014427;28;20226;-83
2021/12/03 06:55:53;;;;;;;5.43;4.53;;;;;;;2.72;70.62;98887.97;5014063;28;20255;-82
2021/12/03 06:58:36;;;;;;;5.00;4.47;;;;;;;2.77;70.83;98885.56;5012237;28;20235;-83
2021/12/03 07:01:17;;;;;;;6.43;4.70;;;;;;;2.96;69.82;98887.59;5012841;28;20223;-82
2021/12/03 07:07:15;;;;;;;4.87;4.10;;;;;;;2.92;68.20;98862.53;5008813;28;20301;-83
2021/12/03 07:10:22;;;;;;;5.33;3.87;;;;;;;3.21;67.30;98869.50;4923905;28;20239;-82
2021/12/03 07:14:24;;;;;;;4.03;3.63;;;;;;;3.21;67.25;98866.88;5018569;28;20203;-83
2021/12/03 07:17:35;;;;;;;3.97;3.57;;;;;;;3.36;67.04;98874.72;5120076;23;20217;-83
2021/12/03 07:20:39;;;;;;;4.73;4.27;;;;;;;3.51;67.35;98892.16;5043053;28;20289;-83
2021/12/03 07:24:24;;;;;;;4.63;4.23;;;;;;;3.51;67.05;98888.69;5052171;23;20237;-82
2021/12/03 07:27:33;;;;;;;5.33;4.50;;;;;;;3.60;67.25;98915.84;5531726;23;21167;-83
2021/12/03 07:31:19;;;;;;;5.90;4.63;;;;;;;3.80;67.37;98938.00;5041948;28;20195;-83
2021/12/03 07:34:06;;;;;;;6.73;5.17;;;;;;;3.79;67.62;98931.06;5032028;28;20233;-81
2021/12/03 07:53:34;;;;;;;4.77;4.23;;;;;;;4.39;69.36;98988.75;4894745;29;20245;-85
2021/12/03 07:56:56;;;;;;;5.67;4.93;;;;;;;4.26;69.83;98989.50;4910152;23;20219;-82
2021/12/03 08:01:20;;;;;;;5.70;4.93;;;;;;;4.11;69.86;98985.31;4900267;23;20278;-84
2021/12/03 08:03:54;;;;;;;6.10;5.17;;;;;;;4.23;70.15;98992.56;4923719;23;20242;-83
2021/12/03 08:06:31;;;;;;;5.77;4.97;;;;;;;4.26;69.84;99008.06;4904413;29;20418;-84
2021/12/03 08:09:30;;;;;;;5.83;5.33;;;;;;;4.22;69.24;99016.59;4923866;23;20328;-84
2021/12/03 08:12:18;;;;;;;5.03;4.53;;;;;;;4.26;68.38;99009.91;4913742;29;20235;-84
2021/12/03 08:14:49;;;;;;;5.33;4.83;;;;;;;4.36;68.34;99018.31;4902493;29;20199;-83
2021/12/03 08:17:17;;;;;;;5.30;4.50;;;;;;;4.46;68.00;99023.28;4916285;29;20231;-85
2021/12/03 08:19:49;;;;;;;5.57;4.47;;;;;;;4.51;68.15;99032.31;4915624;29;20245;-84
2021/12/03 08:22:17;;;;;;;4.63;3.67;;;;;;;4.68;67.47;99033.63;4918478;29;20238;-84
2021/12/03 08:24:59;;;;;;;4.73;3.63;;;;;;;4.69;66.57;99039.75;4918587;23;20219;-83
2021/12/03 08:27:29;;;;;;;4.03;3.67;;;;;;;4.75;66.14;99047.75;4916313;29;20234;-84
2021/12/03 08:30:11;;;;;;;3.70;3.40;;;;;;;4.84;65.30;99057.19;4914730;29;20238;-84
2021/12/03 08:32:55;;;;;;;4.33;3.93;;;;;;;4.82;65.02;99029.19;4914882;29;20253;-84
2021/12/03 08:35:41;;;;;;;4.00;3.60;;;;;;;4.99;63.90;99049.09;4922652;23;20254;-84
2021/12/03 08:38:27;;;;;;;3.97;3.57;;;;;;;5.18;63.88;99052.84;4938099;23;20242;-84
2021/12/03 08:41:17;;;;;;;3.63;3.33;;;;;;;5.41;62.60;99050.69;4902488;29;20262;-84
2021/12/03 08:43:46;;;;;;;3.77;3.00;;;;;;;5.42;61.06;99067.41;4915709;29;20191;-84
2021/12/03 08:46:43;;;;;;;4.30;3.20;;;;;;;5.76;61.45;99078.75;4917368;29;20203;-83
2021/12/03 08:55:15;;;;;;;3.37;2.90;;;;;;;6.06;59.65;99086.38;4917076;29;20239;-84
2021/12/03 08:57:45;;;;;;;4.17;3.03;;;;;;;6.02;59.26;99093.13;4908190;23;20227;-84
2021/12/03 09:00:20;;;;;;;2.93;2.73;;;;;;;6.02;59.61;99085.94;4901624;29;20931;-84
2021/12/03 09:03:10;;;;;;;3.07;2.77;;;;;;;5.99;59.47;99097.00;4877669;29;20238;-85
2021/12/03 09:05:46;;;;;;;3.03;2.63;;;;;;;5.98;58.93;99113.97;4847287;29;20226;-84
2021/12/03 09:08:16;;;;;;;2.03;1.93;;;;;;;6.02;57.58;99119.72;4876419;29;20232;-84
2021/12/03 09:10:44;;;;;;;2.93;2.63;;;;;;;5.88;58.46;99108.22;4862736;29;20228;-83
2021/12/03 09:13:18;;;;;;;2.90;2.57;;;;;;;5.77;59.07;99119.44;4854268;29;20252;-84
2021/12/03 09:16:04;;;;;;;2.80;2.60;;;;;;;5.50;59.45;99109.75;4861656;29;20220;-85
2021/12/03 09:18:43;;;;;;;2.90;2.60;;;;;;;5.51;60.21;99128.13;4866876;29;20692;-84
2021/12/03 09:21:33;;;;;;;3.00;2.70;;;;;;;5.70;60.66;99124.72;4879242;29;20277;-83
2021/12/03 09:24:14;;;;;;;4.07;3.67;;;;;;;5.73;60.32;99136.81;4861237;29;20220;-84
2021/12/03 09:30:17;;;;;;;4.80;4.03;;;;;;;5.85;60.57;99131.72;4896101;29;20284;-83
2021/12/03 09:32:56;;;;;;;4.67;4.17;;;;;;;5.86;60.42;99139.50;4920625;23;20237;-83
2021/12/03 09:35:53;;;;;;;6.60;4.53;;;;;;;5.70;59.80;99123.91;4902152;23;20330;-83
2021/12/03 09:38:37;;;;;;;4.57;4.17;;;;;;;5.52;59.63;99124.47;4879715;29;20231;-83
2021/12/03 09:41:16;;;;;;;5.53;4.57;;;;;;;5.55;61.26;99117.94;4895761;29;20243;-83
2021/12/03 09:44:05;;;;;;;4.73;4.33;;;;;;;5.39;60.49;99116.44;4896180;29;20207;-83
2021/12/03 09:46:34;;;;;;;4.67;4.27;;;;;;;5.09;61.42;99109.78;4894797;29;20243;-83
2021/12/03 09:49:32;;;;;;;5.07;4.53;;;;;;;5.20;60.40;99112.69;4877343;29;20660;-83
2021/12/03 09:52:11;;;;;;;5.50;4.67;;;;;;;5.13;60.22;99092.44;4876397;29;20242;-83
2021/12/03 09:54:56;;;;;;;4.90;4.40;;;;;;;5.16;60.86;99106.16;4883200;29;20249;-82
2021/12/03 09:57:37;;;;;;;5.23;4.57;;;;;;;4.79;60.78;99088.81;4914821;29;20195;-83
2021/12/03 10:15:59;;;;;;;6.27;4.50;;;;;;;4.64;59.83;99079.31;5130544;28;20230;-82
2021/12/03 10:22:29;;;;;;;5.47;4.43;;;;;;;4.87;59.26;99085.97;5120863;28;20230;-83
2021/12/03 10:30:44;;;;;;;4.27;3.87;;;;;;;5.11;56.30;99089.97;5101685;28;20251;-83
2021/12/03 10:42:58;;;;;;;4.90;4.03;;;;;;;5.41;55.46;99095.84;5134105;28;20203;-83
2021/12/03 10:53:45;;;;;;;4.37;3.70;;;;;;;5.58;55.17;99096.28;5133900;28;20222;-84
2021/12/03 10:56:34;;;;;;;5.10;3.80;;;;;;;5.64;54.92;99093.66;5133044;28;20334;-84
2021/12/03 11:19:37;;;;;;;3.93;3.53;;;;;;;5.80;52.09;99102.25;5090875;22;20212;-83
2021/12/03 11:34:03;;;;;;;3.10;2.80;;;;;;;6.48;49.50;99117.91;5098068;28;20235;-83
2021/12/03 11:59:12;;;;;;;2.90;2.60;;;;;;;5.96;49.79;99097.41;5118696;28;20183;-83
2021/12/03 13:22:48;;;;;;;4.17;3.00;;;;;;;6.54;48.27;99146.34;5056217;28;20244;-82
2021/12/03 13:25:52;;;;;;;2.70;2.40;;;;;;;6.48;48.97;99147.19;5078690;22;20213;-82
2021/12/03 14:45:13;;;;;;;2.60;2.37;;;;;;;4.36;53.78;99236.63;5091223;28;20228;-82
2021/12/03 15:06:08;;;;;;;2.80;2.53;;;;;;;3.48;57.43;99236.84;5094913;28;20231;-82
2021/12/03 15:09:02;;;;;;;3.03;2.70;;;;;;;3.32;56.98;99218.47;5077405;28;20540;-84
2021/12/03 15:12:18;;;;;;;2.57;2.37;;;;;;;3.26;57.55;99247.53;5094424;28;20240;-84
2021/12/03 15:30:37;;;;;;;2.27;2.07;;;;;;;2.91;58.13;99267.56;5094999;28;20220;-84
2021/12/03 15:33:29;;;;;;;2.13;1.93;;;;;;;2.81;58.27;99259.03;5093948;28;20242;-85
2021/12/03 15:36:14;;;;;;;2.50;2.30;;;;;;;2.71;58.34;99239.97;5094926;28;20215;-82
2021/12/03 16:04:23;;;;;;;3.80;3.40;;;;;;;2.22;60.83;99287.91;5121884;23;20261;-85
2021/12/03 16:24:46;;;;;;;3.80;3.40;;;;;;;1.99;62.67;99298.44;5175715;22;20241;-85
2021/12/03 16:51:58;;;;;;;3.97;3.57;;;;;;;1.68;63.58;99318.72;5031960;28;20238;-84
2021/12/03 16:55:07;;;;;;;4.53;3.30;;;;;;;1.63;64.34;99336.91;5034413;28;20210;-84
2021/12/03 16:57:38;;;;;;;4.13;3.57;;;;;;;1.53;64.49;99336.25;4992964;28;20208;-84
2021/12/03 17:00:39;;;;;;;4.47;3.83;;;;;;;1.50;64.99;99339.22;5014819;23;20299;-85
2021/12/03 17:03:40;;;;;;;4.00;3.50;;;;;;;1.45;65.07;99328.34;5013832;28;20191;-84
2021/12/03 17:16:06;;;;;;;3.90;3.50;;;;;;;1.24;65.11;99321.81;4987210;28;20704;-85
2021/12/03 18:00:06;;;;;;;7.37;4.67;;;;;;;-0.03;71.03;99346.03;4977798;28;20228;-84
2021/12/03 18:06:49;;;;;;;10.03;7.13;;;;;;;-0.31;71.43;99332.28;5069467;22;20241;-84
2021/12/03 18:44:40;;;;;;;11.70;9.90;;;;;;;-0.99;72.57;99323.50;5076034;28;20208;-84
2021/12/03 18:50:06;;;;;;;10.97;7.60;;;;;;;-1.12;73.31;99323.88;5079571;23;20209;-84
2021/12/03 18:55:42;;;;;;;11.30;7.47;;;;;;;-1.28;73.27;99296.63;5057391;28;20686;-84
2021/12/03 18:58:30;;;;;;;12.27;8.90;;;;;;;-1.46;73.77;99294.88;5040852;28;20237;-84
2021/12/03 19:01:04;;;;;;;15.67;10.00;;;;;;;-1.41;74.17;99303.13;5054037;28;20251;-84
2021/12/03 19:06:32;;;;;;;12.03;7.63;;;;;;;-1.41;74.58;99312.81;5042618;28;20260;-84
2021/12/03 19:09:24;;;;;;;12.87;8.30;;;;;;;-1.47;74.51;99313.41;5046820;28;20578;-83
2021/12/03 19:14:33;;;;;;;13.90;9.80;;;;;;;-1.55;74.92;99314.16;5065134;23;20221;-84
2021/12/03 19:17:08;;;;;;;15.23;10.90;;;;;;;-1.58;75.26;99310.97;5032502;28;20231;-85
2021/12/03 19:19:44;;;;;;;15.17;10.17;;;;;;;-1.67;75.46;99298.75;5016376;23;20302;-83
2021/12/03 19:22:47;;;;;;;15.00;10.87;;;;;;;-1.67;76.29;99314.50;5014636;28;20196;-84
2021/12/03 19:25:18;;;;;;;19.87;12.67;;;;;;;-1.66;76.28;99318.78;5015902;28;20238;-84
2021/12/03 19:28:07;;;;;;;20.67;13.40;;;;;;;-1.77;76.28;99323.28;5010057;28;20200;-85
2021/12/03 19:30:39;;;;;;;21.57;14.07;;;;;;;-1.74;76.56;99330.06;4996444;28;20196;-84
2021/12/03 19:33:15;;;;;;;18.57;12.90;;;;;;;-1.72;76.74;99329.88;4996692;28;20235;-84
2021/12/03 19:36:25;;;;;;;19.90;13.17;;;;;;;-1.70;76.58;99349.78;5035303;23;20695;-82
2021/12/03 19:39:05;;;;;;;18.47;12.57;;;;;;;-1.65;76.08;99330.97;5057432;23;20214;-83
2021/12/03 19:42:13;;;;;;;17.10;12.53;;;;;;;-1.75;77.16;99319.69;5086153;23;20240;-83
2021/12/03 19:44:58;;;;;;;14.20;9.93;;;;;;;-1.88;76.90;99305.13;5125744;23;20288;-84
2021/12/03 19:48:01;;;;;;;13.87;9.07;;;;;;;-1.83;77.02;99313.41;5035514;28;20218;-84
2021/12/03 19:50:43;;;;;;;9.67;6.97;;;;;;;-1.99;77.15;99294.00;5023916;28;20231;-85
2021/12/03 19:54:15;;;;;;;9.63;7.20;;;;;;;-1.98;77.08;99293.03;5048606;23;20241;-85
2021/12/03 19:57:21;;;;;;;9.00;6.90;;;;;;;-1.93;77.51;99310.00;5053504;23;20223;-84
2021/12/03 20:00:42;;;;;;;9.23;7.00;;;;;;;-1.86;77.06;99310.22;5000162;28;20192;-84
2021/12/03 20:03:12;;;;;;;8.70;7.00;;;;;;;-1.96;77.16;99299.78;4991156;28;20222;-83
2021/12/03 20:05:45;;;;;;;8.07;6.80;;;;;;;-1.86;77.10;99315.47;4999429;28;20223;-84
2021/12/03 20:08:25;;;;;;;8.60;6.40;;;;;;;-1.89;77.19;99313.16;5033991;28;20226;-83
2021/12/03 20:11:02;;;;;;;8.53;6.87;;;;;;;-1.82;77.21;99319.47;5028180;23;20515;-83
2021/12/03 20:13:56;;;;;;;8.70;6.90;;;;;;;-1.82;77.00;99311.59;5044798;23;20222;-84
2021/12/03 20:19:35;;;;;;;11.27;8.17;;;;;;;-1.77;77.04;99310.16;5038234;28;20188;-84
2021/12/03 20:28:11;;;;;;;10.47;7.87;;;;;;;-1.58;75.72;99309.19;5032615;28;20238;-84
2021/12/03 20:30:53;;;;;;;9.17;7.07;;;;;;;-1.53;75.23;99309.56;5028210;23;20651;-83
2021/12/03 20:36:48;;;;;;;11.03;7.13;;;;;;;-1.53;74.75;99282.47;5053871;28;20297;-82
2021/12/03 20:39:39;;;;;;;11.93;8.10;;;;;;;-1.56;74.41;99275.72;5050707;28;20183;-83
2021/12/03 20:42:36;;;;;;;17.73;8.97;;;;;;;-1.40;74.34;99285.56;5047423;28;20229;-83
2021/12/03 20:50:54;;;;;;;12.30;9.07;;;;;;;-1.43;73.55;99272.69;5001646;28;20218;-83
2021/12/03 20:53:46;;;;;;;13.27;8.67;;;;;;;-1.37;73.81;99277.34;5017468;23;20254;-83
2021/12/03 21:10:29;;;;;;;9.50;6.57;;;;;;;-1.38;72.45;99259.94;5019084;28;20218;-83
2021/12/03 21:13:24;;;;;;;8.40;6.53;;;;;;;-1.38;72.10;99257.31;5042628;28;20321;-82
2021/12/03 21:20:14;;;;;;;8.33;6.20;;;;;;;-1.33;71.52;99248.00;5054455;23;20249;-82
2021/12/03 21:27:41;;;;;;;8.53;6.37;;;;;;;-1.48;71.04;99219.78;5061928;23;20315;-83
2021/12/03 21:41:29;;;;;;;7.87;5.93;;;;;;;-1.53;70.05;99241.25;5041652;28;20189;-84
2021/12/03 21:44:10;;;;;;;10.97;7.17;;;;;;;-1.56;70.38;99236.31;5049001;28;20229;-84
2021/12/03 21:47:21;;;;;;;7.63;5.47;;;;;;;-1.51;70.11;99236.69;5041636;28;20205;-83
2021/12/03 21:50:38;;;;;;;9.20;6.40;;;;;;;-1.53;69.72;99236.00;5069713;23;20243;-84
2021/12/03 21:53:16;;;;;;;8.43;6.00;;;;;;;-1.61;70.09;99235.13;5073897;28;20281;-84
2021/12/03 21:59:31;;;;;;;10.30;7.77;;;;;;;-1.64;70.26;99225.75;5033196;28;20194;-85
2021/12/03 22:02:16;;;;;;;12.47;7.33;;;;;;;-1.75;70.53;99217.25;5048406;23;20236;-85
2021/12/03 22:04:58;;;;;;;11.03;7.47;;;;;;;-1.73;70.59;99223.19;5046414;23;20229;-84
2021/12/03 22:08:13;;;;;;;10.73;7.13;;;;;;;-1.67;70.81;99226.03;5055481;28;20221;-83
2021/12/03 22:11:14;;;;;;;8.90;6.47;;;;;;;-1.74;70.75;99222.38;5076842;23;20244;-84
2021/12/03 22:14:20;;;;;;;9.43;6.63;;;;;;;-1.79;70.96;99216.75;5047600;23;20222;-84
2021/12/03 22:16:56;;;;;;;11.87;7.93;;;;;;;-1.79;71.17;99208.88;5055617;23;20227;-84
2021/12/03 22:19:31;;;;;;;20.33;11.37;;;;;;;-1.75;71.01;99212.00;5014073;28;20230;-84
2021/12/03 22:22:47;;;;;;;12.57;8.23;;;;;;;-1.83;71.01;99205.72;5034855;28;20258;-83
2021/12/03 22:25:18;;;;;;;11.40;7.73;;;;;;;-1.77;70.69;99207.72;5008788;28;20247;-84
2021/12/03 22:28:03;;;;;;;8.50;5.80;;;;;;;-1.94;70.03;99168.34;5034556;28;20253;-83
2021/12/03 22:30:42;;;;;;;6.90;5.17;;;;;;;-1.73;69.67;99191.69;5034048;28;20220;-84
2021/12/03 22:33:18;;;;;;;7.67;5.17;;;;;;;-1.75;68.83;99175.25;5018681;28;20217;-84
2021/12/03 22:36:05;;;;;;;9.17;5.67;;;;;;;-1.80;68.32;99152.06;5049470;28;20230;-84
2021/12/03 22:38:36;;;;;;;7.00;5.30;;;;;;;-1.82;68.19;99149.59;5039167;23;20304;-83
2021/12/03 22:41:08;;;;;;;6.83;4.83;;;;;;;-1.69;67.75;99167.59;5010055;28;20230;-85
2021/12/03 22:43:36;;;;;;;6.53;4.87;;;;;;;-1.71;68.19;99163.44;5026118;28;20238;-84
2021/12/03 22:54:21;;;;;;;6.87;5.10;;;;;;;-1.77;67.96;99140.44;5004856;28;20319;-83
2021/12/03 22:56:51;;;;;;;7.53;5.43;;;;;;;-1.90;68.20;99141.66;5010860;28;20191;-83
2021/12/03 22:59:23;;;;;;;7.23;5.00;;;;;;;-1.91;68.38;99147.88;5009474;28;20231;-84